Danbury, CT

2:13 AM EDT on July 28, 2015 (GMT -0400)
KCTDANBU1 | | Change Station
CLOSE
Current Station
Personal Weather Station
Location: Danbury, CT
Elevation: 420 ft
Nearby Weather Stations

Elev 420 ft 41.40 °N, 73.42 °W | Updated 3 seconds ago

Clear
Clear
68.8 °F
Feels Like 68.8 °F
N
0.0
Wind Variable Wind from SW
Gusts 1.0 mph

Today
High -- | Low -- °F
--% Chance of Precip.
Yesterday
High -- | Low -- °F
Precip. -- in
5:44 AM 8:15 PM
Waxing Gibbous, 87% visible
Pressure 30.02 in
Visibility 9.0 miles
Clouds Clear
Dew Point 67 °F
Humidity 95%
Rainfall 0.00 in
Snow Depth Not available.
UV 0 out of 12
Pollen 4.80 out of 12
Air Quality Not available.
Flu Activity Not available.
METAR KDXR 280553Z AUTO 00000KT 9SM CLR 21/18 A3003 RMK AO2 SLP165 T02060178 10250 20200 58003

More Conditions Fewer Conditions

Pressure 30.02 in
Visibility 9.0 miles
Clouds Clear
Dew Point 67 °F
Humidity 95%
Rainfall 0.00 in
Snow Depth Not available.
UV 0 out of 12
Pollen 4.80 out of 12
Air Quality Not available.
Flu Activity Not available.
METAR KDXR 280553Z AUTO 00000KT 9SM CLR 21/18 A3003 RMK AO2 SLP165 T02060178 10250 20200 58003

More Conditions Fewer Conditions

10-Day Weather Forecast

×

Almanac

Astronomy

Jul. 28, 2015 Rise Set
Actual Time
Civil Twilight
Nautical Twilight
Astronomical Twilight
Moon
Length of Visible Light
Length of Day
Tomorrow will be .
, % of the Moon is Illuminated

Today's Extremes

State Highs State Lows

Community

WunderPhotos

Upload Photos

1,841,796 photos uploaded!

WunderBlogs® & News

Nearby

Air Quality

  Air Quality AQ Index Pollutant
Not available.

Snow Depth

Station Depth Elevation

Earthquake Activity

City Distance Mag. Time & Date
Minimum magnitude displayed is 2.5.

Coastal Water Temperatures

Place Temperature

Stations

Nearby Weather Stations

Station Location Temp. Windchill Dew Point Humidity Wind Precip. Elev Updated Type